createdAt,value
2023-04-04T00:00:43.004Z,95218.00
2023-04-04T00:01:42.855Z,95217.00
2023-04-04T00:02:43.117Z,95218.00
2023-04-04T00:03:43.102Z,95218.00
2023-04-04T00:04:43.111Z,95215.00
2023-04-04T00:05:43.146Z,95217.00
2023-04-04T00:06:43.099Z,95217.00
2023-04-04T00:07:43.114Z,95215.00
2023-04-04T00:08:43.171Z,95217.00
2023-04-04T00:09:43.264Z,95211.00
2023-04-04T00:10:43.409Z,95213.00
2023-04-04T00:11:43.303Z,95209.00
2023-04-04T00:12:43.314Z,95211.00
2023-04-04T00:13:43.356Z,95213.00
2023-04-04T00:14:43.400Z,95215.00
2023-04-04T00:15:43.475Z,95209.00
2023-04-04T00:16:43.469Z,95209.00
2023-04-04T00:17:43.556Z,95207.00
2023-04-04T00:18:43.667Z,95209.00
2023-04-04T00:19:43.657Z,95211.00
2023-04-04T00:20:43.667Z,95209.00
2023-04-04T00:21:43.674Z,95203.00
2023-04-04T00:22:43.722Z,95203.00
2023-04-04T00:23:43.785Z,95203.00
2023-04-04T00:24:43.828Z,95205.00
2023-04-04T00:25:43.828Z,95203.00
2023-04-04T00:26:43.904Z,95201.00
2023-04-04T00:27:44.004Z,95199.00
2023-04-04T00:28:44.025Z,95199.00
2023-04-04T00:29:44.009Z,95199.00
2023-04-04T00:30:44.062Z,95201.00
2023-04-04T00:31:44.115Z,95199.00
2023-04-04T00:32:44.223Z,95199.00
2023-04-04T00:33:44.252Z,95197.00
2023-04-04T00:34:44.256Z,95195.00
2023-04-04T00:35:44.325Z,95193.00
2023-04-04T00:36:44.338Z,95197.00
2023-04-04T00:37:44.424Z,95197.00
2023-04-04T00:38:44.446Z,95199.00
2023-04-04T00:39:44.488Z,95197.00
2023-04-04T00:40:44.526Z,95197.00
2023-04-04T00:41:44.619Z,95197.00
2023-04-04T00:42:44.640Z,95201.00
2023-04-04T00:43:44.667Z,95197.00
2023-04-04T00:44:44.732Z,95199.00
2023-04-04T00:45:44.791Z,95197.00
2023-04-04T00:46:44.777Z,95195.00
2023-04-04T00:47:44.905Z,95199.00
2023-04-04T00:48:44.930Z,95197.00
2023-04-04T00:49:44.917Z,95193.00
2023-04-04T00:50:45.013Z,95197.00
2023-04-04T00:51:45.012Z,95195.00
2023-04-04T00:52:45.109Z,95195.00
2023-04-04T00:53:45.100Z,95197.00
2023-04-04T00:54:45.164Z,95195.00
2023-04-04T00:55:45.249Z,95195.00
2023-04-04T00:56:45.368Z,95191.00
2023-04-04T00:57:45.363Z,95191.00
2023-04-04T00:58:45.511Z,95193.00
2023-04-04T00:59:45.403Z,95187.00
2023-04-04T01:00:45.492Z,95189.00
2023-04-04T01:01:45.523Z,95193.00
2023-04-04T01:02:45.634Z,95191.00
2023-04-04T01:03:45.612Z,95191.00
2023-04-04T01:04:45.660Z,95191.00
2023-04-04T01:05:45.716Z,95187.00
2023-04-04T01:06:45.723Z,95185.00
2023-04-04T01:07:45.835Z,95185.00
2023-04-04T01:08:45.873Z,95185.00
2023-04-04T01:09:45.894Z,95187.00
2023-04-04T01:10:45.951Z,95187.00
2023-04-04T01:11:46.042Z,95185.00
2023-04-04T01:12:46.058Z,95185.00
2023-04-04T01:13:46.092Z,95187.00
2023-04-04T01:14:46.157Z,95181.00
2023-04-04T01:15:46.218Z,95181.00
2023-04-04T01:16:46.333Z,95191.00
2023-04-04T01:17:46.312Z,95181.00
2023-04-04T01:18:46.365Z,95183.00
2023-04-04T01:19:46.426Z,95183.00
2023-04-04T01:20:46.463Z,95183.00
2023-04-04T01:21:46.540Z,95181.00
2023-04-04T01:22:46.551Z,95179.00
2023-04-04T01:23:46.615Z,95181.00
2023-04-04T01:24:46.638Z,95177.00
2023-04-04T01:25:46.702Z,95177.00
2023-04-04T01:26:46.735Z,95179.00
2023-04-04T01:27:46.801Z,95181.00
2023-04-04T01:28:46.820Z,95181.00
2023-04-04T01:29:46.932Z,95181.00
2023-04-04T01:30:47.035Z,95181.00
2023-04-04T01:31:47.014Z,95179.00
2023-04-04T01:32:47.236Z,95181.00
2023-04-04T01:33:47.270Z,95179.00
2023-04-04T01:34:47.236Z,95181.00
2023-04-04T01:35:47.272Z,95181.00
2023-04-04T01:36:47.299Z,95179.00
2023-04-04T01:37:47.377Z,95179.00
2023-04-04T01:38:47.398Z,95179.00
2023-04-04T01:39:47.419Z,95175.00
2023-04-04T01:40:47.467Z,95173.00
2023-04-04T01:41:47.538Z,95175.00
2023-04-04T01:42:47.614Z,95173.00
2023-04-04T01:43:47.662Z,95175.00
2023-04-04T01:44:47.663Z,95175.00
2023-04-04T01:45:47.753Z,95171.00
2023-04-04T01:46:47.831Z,95171.00
2023-04-04T01:47:47.930Z,95171.00
2023-04-04T01:48:47.886Z,95171.00
2023-04-04T01:49:47.949Z,95173.00
2023-04-04T01:50:47.968Z,95175.00
2023-04-04T01:51:48.078Z,95173.00
2023-04-04T01:52:48.084Z,95175.00
2023-04-04T01:53:48.203Z,95171.00
2023-04-04T01:54:48.166Z,95173.00
2023-04-04T01:55:48.236Z,95175.00
2023-04-04T01:56:48.297Z,95175.00
2023-04-04T01:57:48.364Z,95175.00
2023-04-04T01:58:48.445Z,95173.00
2023-04-04T01:59:48.448Z,95173.00
2023-04-04T02:00:48.559Z,95175.00
2023-04-04T02:01:48.601Z,95171.00
2023-04-04T02:02:48.708Z,95173.00
2023-04-04T02:03:48.764Z,95175.00
2023-04-04T02:04:48.779Z,95171.00
2023-04-04T02:05:48.825Z,95173.00
2023-04-04T02:06:48.905Z,95175.00
2023-04-04T02:07:48.914Z,95175.00
2023-04-04T02:08:49.009Z,95175.00
2023-04-04T02:09:49.133Z,95177.00
2023-04-04T02:10:49.132Z,95173.00
2023-04-04T02:11:49.180Z,95173.00
2023-04-04T02:12:49.256Z,95175.00
2023-04-04T02:13:49.256Z,95173.00
2023-04-04T02:14:49.381Z,95173.00
2023-04-04T02:15:49.508Z,95173.00
2023-04-04T02:16:49.523Z,95175.00
2023-04-04T02:17:49.590Z,95177.00
2023-04-04T02:18:49.584Z,95175.00
2023-04-04T02:19:49.699Z,95173.00
2023-04-04T02:20:49.709Z,95177.00
2023-04-04T02:21:49.788Z,95175.00
2023-04-04T02:22:49.828Z,95171.00
2023-04-04T02:23:49.881Z,95175.00
2023-04-04T02:24:49.975Z,95167.00
2023-04-04T02:25:50.055Z,95169.00
2023-04-04T02:26:50.076Z,95169.00
2023-04-04T02:27:50.107Z,95169.00
2023-04-04T02:28:50.172Z,95167.00
2023-04-04T02:29:50.278Z,95169.00
2023-04-04T02:30:50.328Z,95167.00
2023-04-04T02:31:50.323Z,95169.00
2023-04-04T02:32:50.572Z,95169.00
2023-04-04T02:33:50.506Z,95169.00
2023-04-04T02:34:50.525Z,95167.00
2023-04-04T02:35:50.692Z,95167.00
2023-04-04T02:36:50.651Z,95167.00
2023-04-04T02:37:50.723Z,95169.00
2023-04-04T02:38:50.792Z,95167.00
2023-04-04T02:39:50.868Z,95167.00
2023-04-04T02:40:50.869Z,95165.00
2023-04-04T02:41:50.975Z,95163.00
2023-04-04T02:42:51.118Z,95163.00
2023-04-04T02:43:51.112Z,95165.00
2023-04-04T02:44:51.131Z,95163.00
2023-04-04T02:45:51.217Z,95165.00
2023-04-04T02:46:51.280Z,95162.00
2023-04-04T02:47:51.470Z,95165.00
2023-04-04T02:48:51.368Z,95163.00
2023-04-04T02:49:51.434Z,95162.00
2023-04-04T02:50:51.546Z,95163.00
2023-04-04T02:51:51.560Z,95162.00
2023-04-04T02:52:51.631Z,95163.00
2023-04-04T02:53:51.693Z,95160.00
2023-04-04T02:54:51.783Z,95163.00
2023-04-04T02:55:51.847Z,95163.00
2023-04-04T02:56:51.897Z,95163.00
2023-04-04T02:57:51.953Z,95160.00
2023-04-04T02:58:52.031Z,95160.00
2023-04-04T02:59:52.103Z,95160.00
2023-04-04T03:00:52.157Z,95160.00
2023-04-04T03:01:52.199Z,95160.00
2023-04-04T03:02:52.369Z,95158.00
2023-04-04T03:03:52.394Z,95160.00
2023-04-04T03:04:52.374Z,95154.00
2023-04-04T03:05:52.414Z,95158.00
2023-04-04T03:06:52.499Z,95154.00
2023-04-04T03:07:52.532Z,95156.00
2023-04-04T03:08:52.618Z,95152.00
2023-04-04T03:09:52.652Z,95154.00
2023-04-04T03:10:52.829Z,95156.00
2023-04-04T03:11:52.825Z,95158.00
2023-04-04T03:12:52.874Z,95156.00
2023-04-04T03:13:52.964Z,95160.00
2023-04-04T03:14:52.997Z,95160.00
2023-04-04T03:15:52.998Z,95160.00
2023-04-04T03:16:53.268Z,95158.00
2023-04-04T03:17:53.193Z,95158.00
2023-04-04T03:18:53.228Z,95158.00
2023-04-04T03:19:53.283Z,95160.00
2023-04-04T03:20:53.411Z,95160.00
2023-04-04T03:21:53.419Z,95162.00
2023-04-04T03:22:53.462Z,95163.00
2023-04-04T03:23:53.530Z,95163.00
2023-04-04T03:24:53.562Z,95162.00
2023-04-04T03:25:53.638Z,95162.00
2023-04-04T03:26:53.754Z,95162.00
2023-04-04T03:27:53.760Z,95163.00
2023-04-04T03:28:53.858Z,95162.00
2023-04-04T03:29:53.844Z,95160.00
2023-04-04T03:30:53.912Z,95160.00
2023-04-04T03:31:54.041Z,95162.00
2023-04-04T03:32:54.086Z,95158.00
2023-04-04T03:33:54.101Z,95160.00
2023-04-04T03:34:54.152Z,95158.00
2023-04-04T03:35:54.252Z,95158.00
2023-04-04T03:36:54.273Z,95160.00
2023-04-04T03:37:54.331Z,95162.00
2023-04-04T03:38:54.372Z,95162.00
2023-04-04T03:39:54.525Z,95162.00
2023-04-04T03:40:54.537Z,95160.00
2023-04-04T03:41:54.585Z,95162.00
2023-04-04T03:42:54.619Z,95163.00
2023-04-04T03:43:54.681Z,95162.00
2023-04-04T03:44:54.705Z,95162.00
2023-04-04T03:45:54.759Z,95162.00
2023-04-04T03:46:54.804Z,95163.00
2023-04-04T03:47:54.886Z,95162.00
2023-04-04T03:48:54.916Z,95163.00
2023-04-04T03:49:54.931Z,95160.00
2023-04-04T03:50:55.027Z,95162.00
2023-04-04T03:51:55.085Z,95162.00
2023-04-04T03:52:55.092Z,95163.00
2023-04-04T03:53:55.170Z,95163.00
2023-04-04T03:54:55.241Z,95162.00
2023-04-04T03:55:55.284Z,95167.00
2023-04-04T03:56:55.321Z,95167.00
2023-04-04T03:57:55.389Z,95165.00
2023-04-04T03:58:55.475Z,95165.00
2023-04-04T03:59:55.507Z,95165.00
2023-04-04T04:00:55.520Z,95165.00
2023-04-04T04:01:55.525Z,95187.00
2023-04-04T04:02:55.688Z,95187.00
2023-04-04T04:03:55.706Z,95189.00
2023-04-04T04:04:55.691Z,95187.00
2023-04-04T04:05:55.750Z,95187.00
2023-04-04T04:06:55.795Z,95189.00
2023-04-04T04:07:55.862Z,95189.00
2023-04-04T04:08:55.923Z,95189.00
2023-04-04T04:09:55.997Z,95187.00
2023-04-04T04:10:55.994Z,95187.00
2023-04-04T04:11:56.037Z,95189.00
2023-04-04T04:12:56.073Z,95187.00
2023-04-04T04:13:56.156Z,95191.00
2023-04-04T04:14:56.155Z,95191.00
2023-04-04T04:15:56.254Z,95187.00
2023-04-04T04:16:56.225Z,95193.00
2023-04-04T04:17:56.320Z,95189.00
2023-04-04T04:18:56.241Z,95189.00
2023-04-04T04:19:56.264Z,95193.00
2023-04-04T04:20:56.338Z,95195.00
2023-04-04T04:21:56.374Z,95191.00
2023-04-04T04:22:56.381Z,95193.00
2023-04-04T04:23:56.457Z,95193.00
2023-04-04T04:24:56.331Z,95193.00
2023-04-04T04:25:56.389Z,95193.00
2023-04-04T04:26:56.423Z,95193.00
2023-04-04T04:27:56.434Z,95195.00
2023-04-04T04:28:56.434Z,95195.00
2023-04-04T04:29:56.459Z,95197.00
2023-04-04T04:30:56.470Z,95181.00
2023-04-04T04:31:56.549Z,95177.00
2023-04-04T04:32:56.519Z,95179.00
2023-04-04T04:33:56.461Z,95179.00
2023-04-04T04:34:56.462Z,95183.00
2023-04-04T04:35:56.509Z,95185.00
2023-04-04T04:36:56.572Z,95185.00
2023-04-04T04:37:56.592Z,95185.00
2023-04-04T04:38:56.557Z,95187.00
2023-04-04T04:39:56.604Z,95185.00
2023-04-04T04:40:56.628Z,95187.00
2023-04-04T04:41:56.637Z,95187.00
2023-04-04T04:42:56.727Z,95187.00
2023-04-04T04:43:56.710Z,95185.00
2023-04-04T04:44:56.719Z,95187.00
2023-04-04T04:45:56.681Z,95187.00
2023-04-04T04:46:56.753Z,95191.00
2023-04-04T04:47:56.751Z,95193.00
2023-04-04T04:48:56.838Z,95197.00
2023-04-04T04:49:56.850Z,95199.00
2023-04-04T04:50:56.916Z,95197.00
2023-04-04T04:51:57.015Z,95199.00
2023-04-04T04:52:57.026Z,95199.00
2023-04-04T04:53:57.022Z,95201.00
2023-04-04T04:54:57.007Z,95203.00
2023-04-04T04:55:56.999Z,95201.00
2023-04-04T04:56:57.132Z,95203.00
2023-04-04T04:57:57.048Z,95203.00
2023-04-04T04:58:57.066Z,95205.00
2023-04-04T04:59:57.039Z,95205.00
2023-04-04T05:00:57.085Z,95207.00
2023-04-04T05:01:57.130Z,95207.00
2023-04-04T05:02:57.232Z,95207.00
2023-04-04T05:03:57.176Z,95209.00
2023-04-04T05:04:57.084Z,95213.00
2023-04-04T05:05:57.087Z,95215.00
2023-04-04T05:06:57.101Z,95213.00
2023-04-04T05:07:57.090Z,95213.00
2023-04-04T05:08:57.110Z,95211.00
2023-04-04T05:09:57.111Z,95211.00
2023-04-04T05:10:57.115Z,95209.00
2023-04-04T05:11:57.142Z,95211.00
2023-04-04T05:12:57.163Z,95211.00
2023-04-04T05:13:57.242Z,95213.00
2023-04-04T05:14:57.221Z,95218.00
2023-04-04T05:15:57.166Z,95217.00
2023-04-04T05:16:57.192Z,95215.00
2023-04-04T05:17:57.254Z,95213.00
2023-04-04T05:18:57.277Z,95218.00
2023-04-04T05:19:57.342Z,95215.00
2023-04-04T05:20:57.385Z,95217.00
2023-04-04T05:21:57.393Z,95215.00
2023-04-04T05:22:57.421Z,95213.00
2023-04-04T05:23:57.486Z,95215.00
2023-04-04T05:24:57.543Z,95217.00
2023-04-04T05:25:57.630Z,95213.00
2023-04-04T05:26:57.639Z,95215.00
2023-04-04T05:27:57.736Z,95218.00
2023-04-04T05:28:57.784Z,95220.00
2023-04-04T05:29:57.890Z,95220.00
2023-04-04T05:30:58.589Z,95218.00
2023-04-04T05:31:58.014Z,95220.00
2023-04-04T05:32:58.037Z,95217.00
2023-04-04T05:33:58.050Z,95215.00
2023-04-04T05:34:58.081Z,95217.00
2023-04-04T05:35:58.322Z,95217.00
2023-04-04T05:36:58.236Z,95218.00
2023-04-04T05:37:58.223Z,95220.00
2023-04-04T05:38:58.309Z,95218.00
2023-04-04T05:39:58.333Z,95220.00
2023-04-04T05:40:58.371Z,95220.00
2023-04-04T05:41:58.460Z,95220.00
2023-04-04T05:42:58.469Z,95220.00
2023-04-04T05:43:58.472Z,95220.00
2023-04-04T05:44:58.584Z,95220.00
2023-04-04T05:45:58.630Z,95226.00
2023-04-04T05:46:58.700Z,95224.00
2023-04-04T05:47:58.709Z,95226.00
2023-04-04T05:48:58.790Z,95226.00
2023-04-04T05:49:58.793Z,95224.00
2023-04-04T05:50:58.792Z,95232.00
2023-04-04T05:51:58.850Z,95230.00
2023-04-04T05:52:58.875Z,95234.00
2023-04-04T05:53:58.883Z,95234.00
2023-04-04T05:54:58.957Z,95234.00
2023-04-04T05:55:58.987Z,95236.00
2023-04-04T05:56:58.975Z,95234.00
2023-04-04T05:57:59.011Z,95234.00
2023-04-04T05:58:59.035Z,95234.00
2023-04-04T05:59:59.022Z,95234.00
2023-04-04T06:00:59.032Z,95240.00
2023-04-04T06:01:59.047Z,95242.00
2023-04-04T06:02:59.171Z,95240.00
2023-04-04T06:03:59.122Z,95240.00
2023-04-04T06:04:59.122Z,95242.00
2023-04-04T06:05:59.133Z,95240.00
2023-04-04T06:06:59.112Z,95240.00
2023-04-04T06:07:59.135Z,95250.00
2023-04-04T06:08:59.158Z,95244.00
2023-04-04T06:09:59.125Z,95244.00
2023-04-04T06:10:59.145Z,95244.00
2023-04-04T06:11:59.155Z,95244.00
2023-04-04T06:12:59.183Z,95244.00
2023-04-04T06:13:59.210Z,95246.00
2023-04-04T06:14:59.213Z,95244.00
2023-04-04T06:15:59.313Z,95246.00
2023-04-04T06:16:59.309Z,95244.00
2023-04-04T06:17:59.525Z,95246.00
2023-04-04T06:18:59.474Z,95246.00
2023-04-04T06:19:59.537Z,95244.00
2023-04-04T06:20:59.608Z,95246.00
2023-04-04T06:21:59.637Z,95244.00
2023-04-04T06:22:59.689Z,95244.00
2023-04-04T06:23:59.730Z,95242.00
2023-04-04T06:24:59.771Z,95240.00
2023-04-04T06:25:59.796Z,95240.00
2023-04-04T06:26:59.874Z,95244.00
2023-04-04T06:27:59.904Z,95238.00
2023-04-04T06:28:59.928Z,95238.00
2023-04-04T06:29:59.991Z,95238.00
2023-04-04T06:31:00.039Z,95236.00
2023-04-04T06:32:00.055Z,95240.00
2023-04-04T06:33:00.121Z,95242.00
2023-04-04T06:34:00.104Z,95248.00
2023-04-04T06:35:00.162Z,95240.00
2023-04-04T06:36:00.304Z,95240.00
2023-04-04T06:37:00.184Z,95238.00
2023-04-04T06:38:00.193Z,95238.00
2023-04-04T06:39:00.262Z,95236.00
2023-04-04T06:40:00.266Z,95234.00
2023-04-04T06:41:00.288Z,95238.00
2023-04-04T06:42:00.290Z,95238.00
2023-04-04T06:43:00.282Z,95236.00
2023-04-04T06:44:00.278Z,95236.00
2023-04-04T06:45:00.310Z,95236.00
2023-04-04T06:46:00.273Z,95236.00
2023-04-04T06:47:00.414Z,95230.00
2023-04-04T06:48:00.313Z,95232.00
2023-04-04T06:49:00.274Z,95226.00
2023-04-04T06:50:00.355Z,95234.00
2023-04-04T06:51:00.336Z,95226.00
2023-04-04T06:52:00.416Z,95226.00
2023-04-04T06:53:00.399Z,95226.00
2023-04-04T06:54:00.444Z,95222.00
2023-04-04T06:55:00.511Z,95222.00
2023-04-04T06:56:00.582Z,95220.00
2023-04-04T06:57:00.711Z,95220.00
2023-04-04T06:58:00.728Z,95218.00
2023-04-04T06:59:00.818Z,95222.00
2023-04-04T07:00:00.873Z,95220.00
2023-04-04T07:01:00.941Z,95218.00
2023-04-04T07:02:00.985Z,95218.00
2023-04-04T07:03:01.098Z,95218.00
2023-04-04T07:04:01.035Z,95222.00
2023-04-04T07:05:01.106Z,95218.00
2023-04-04T07:06:01.156Z,95217.00
2023-04-04T07:07:01.216Z,95222.00
2023-04-04T07:08:01.217Z,95218.00
2023-04-04T07:09:01.343Z,95220.00
2023-04-04T07:10:01.312Z,95218.00
2023-04-04T07:11:01.341Z,95218.00
2023-04-04T07:12:01.406Z,95218.00
2023-04-04T07:13:01.415Z,95222.00
2023-04-04T07:14:01.408Z,95220.00
2023-04-04T07:15:01.460Z,95222.00
2023-04-04T07:16:01.516Z,95224.00
2023-04-04T07:17:05.543Z,95222.00
2023-04-04T07:18:02.572Z,95220.00
2023-04-04T07:19:01.530Z,95220.00
2023-04-04T07:20:03.618Z,95217.00
2023-04-04T07:21:01.478Z,95222.00
2023-04-04T07:22:01.481Z,95220.00
2023-04-04T07:23:01.438Z,95222.00
2023-04-04T07:24:01.442Z,95217.00
2023-04-04T07:25:01.480Z,95222.00
2023-04-04T07:26:01.458Z,95224.00
2023-04-04T07:27:01.430Z,95222.00
2023-04-04T07:28:11.656Z,95218.00
2023-04-04T07:29:02.439Z,95218.00
2023-04-04T07:30:01.434Z,95218.00
2023-04-04T07:31:01.463Z,95215.00
2023-04-04T07:32:01.479Z,95213.00
2023-04-04T07:33:01.433Z,95217.00
2023-04-04T07:34:01.395Z,95211.00
2023-04-04T07:35:01.410Z,95213.00
2023-04-04T07:36:01.441Z,95218.00
2023-04-04T07:37:01.392Z,95215.00
2023-04-04T07:38:01.485Z,95217.00
2023-04-04T07:39:01.440Z,95213.00
2023-04-04T07:40:01.539Z,95217.00
2023-04-04T07:41:03.036Z,95167.00
2023-04-04T07:42:01.499Z,95173.00
2023-04-04T07:43:01.461Z,95173.00
2023-04-04T07:44:01.461Z,95171.00
2023-04-04T07:45:01.466Z,95175.00
2023-04-04T07:46:01.525Z,95177.00
2023-04-04T07:47:09.156Z,95171.00
2023-04-04T07:48:02.523Z,95175.00
2023-04-04T07:49:01.460Z,95173.00
2023-04-04T07:50:01.459Z,95175.00
2023-04-04T07:51:01.458Z,95175.00
2023-04-04T07:52:01.470Z,95175.00
2023-04-04T07:53:01.403Z,95175.00
2023-04-04T07:54:01.426Z,95171.00
2023-04-04T07:55:01.390Z,95167.00
2023-04-04T07:56:01.399Z,95167.00
2023-04-04T07:57:01.502Z,95169.00
2023-04-04T07:58:01.524Z,95171.00
2023-04-04T07:59:01.590Z,95175.00
2023-04-04T08:00:01.618Z,95175.00
2023-04-04T08:01:01.666Z,95171.00
2023-04-04T08:02:01.742Z,95171.00
2023-04-04T08:03:01.817Z,95171.00
2023-04-04T08:04:01.904Z,95169.00
2023-04-04T08:05:01.882Z,95171.00
2023-04-04T08:06:01.873Z,95171.00
2023-04-04T08:07:01.921Z,95171.00
2023-04-04T08:08:01.905Z,95171.00
2023-04-04T08:09:01.999Z,95167.00
2023-04-04T08:10:02.009Z,95163.00
2023-04-04T08:11:02.043Z,95163.00
2023-04-04T08:12:02.046Z,95158.00
2023-04-04T08:13:02.113Z,95162.00
2023-04-04T08:14:02.131Z,95158.00
2023-04-04T08:15:02.166Z,95158.00
2023-04-04T08:16:02.242Z,95156.00
2023-04-04T08:17:02.181Z,95154.00
2023-04-04T08:18:02.267Z,95152.00
2023-04-04T08:19:02.227Z,95148.00
2023-04-04T08:20:02.254Z,95148.00
2023-04-04T08:21:02.240Z,95148.00
2023-04-04T08:22:02.288Z,95152.00
2023-04-04T08:23:02.329Z,95154.00
2023-04-04T08:24:02.358Z,95148.00
2023-04-04T08:25:02.357Z,95150.00
2023-04-04T08:26:02.416Z,95152.00
2023-04-04T08:27:05.690Z,95148.00
2023-04-04T08:28:02.405Z,95150.00
2023-04-04T08:29:58.457Z,95140.00
2023-04-04T08:30:58.485Z,95138.00
2023-04-04T08:31:58.469Z,95138.00
2023-04-04T08:32:58.529Z,95136.00
2023-04-04T08:33:58.419Z,95169.00
2023-04-04T08:34:58.408Z,95134.00
2023-04-04T08:35:58.554Z,95134.00
2023-04-04T08:36:58.451Z,95148.00
2023-04-04T08:37:58.413Z,95136.00
2023-04-04T08:38:58.456Z,95134.00
2023-04-04T08:39:58.413Z,95132.00
2023-04-04T08:40:58.423Z,95130.00
2023-04-04T08:41:58.414Z,95126.00
2023-04-04T08:42:58.366Z,95132.00
2023-04-04T08:43:58.367Z,95130.00
2023-04-04T08:44:58.343Z,95132.00
2023-04-04T08:45:58.351Z,95134.00
2023-04-04T08:46:58.429Z,95130.00
2023-04-04T08:47:58.379Z,95132.00
2023-04-04T08:48:58.393Z,95134.00
2023-04-04T08:49:58.345Z,95130.00
2023-04-04T08:50:58.330Z,95130.00
2023-04-04T08:51:58.337Z,95126.00
2023-04-04T08:52:58.325Z,95128.00
2023-04-04T08:53:58.315Z,95126.00
2023-04-04T08:54:58.271Z,95132.00
2023-04-04T08:55:58.321Z,95132.00
2023-04-04T08:56:58.368Z,95132.00
2023-04-04T08:57:58.261Z,95128.00
2023-04-04T08:58:58.486Z,95128.00
2023-04-04T08:59:58.352Z,95130.00
2023-04-04T09:00:58.314Z,95126.00
2023-04-04T09:01:59.122Z,95126.00
2023-04-04T09:02:58.795Z,95128.00
2023-04-04T09:03:58.390Z,95128.00
2023-04-04T09:05:06.311Z,95124.00
2023-04-04T09:05:59.308Z,95124.00
2023-04-04T09:06:58.438Z,95128.00
2023-04-04T09:07:58.278Z,95126.00
2023-04-04T09:08:58.265Z,95122.00
2023-04-04T09:09:58.264Z,95124.00
2023-04-04T09:10:58.266Z,95124.00
2023-04-04T09:11:58.234Z,95120.00
2023-04-04T09:13:08.651Z,95120.00
2023-04-04T09:13:59.200Z,95116.00
2023-04-04T09:14:58.282Z,95116.00
2023-04-04T09:15:58.213Z,95114.00
2023-04-04T09:16:58.322Z,95116.00
2023-04-04T09:17:58.255Z,95114.00
2023-04-04T09:18:58.212Z,95114.00
2023-04-04T09:19:58.197Z,95116.00
2023-04-04T09:20:58.215Z,95112.00
2023-04-04T09:21:58.269Z,95116.00
2023-04-04T09:22:58.171Z,95118.00
2023-04-04T09:23:58.146Z,95116.00
2023-04-04T09:24:58.162Z,95112.00
2023-04-04T09:26:03.788Z,95116.00
2023-04-04T09:26:59.177Z,95114.00
2023-04-04T09:27:58.152Z,95112.00
2023-04-04T09:28:58.156Z,95112.00
2023-04-04T09:29:58.153Z,95112.00
2023-04-04T09:30:58.155Z,95107.00
2023-04-04T09:31:58.132Z,95110.00
2023-04-04T09:32:58.158Z,95110.00
2023-04-04T09:33:58.073Z,95110.00
2023-04-04T09:34:58.152Z,95105.00
2023-04-04T09:35:58.118Z,95109.00
2023-04-04T09:36:58.102Z,95103.00
2023-04-04T09:37:58.079Z,95103.00
2023-04-04T09:38:58.068Z,95103.00
2023-04-04T09:39:58.160Z,95103.00
2023-04-04T09:40:58.074Z,95103.00
2023-04-04T09:41:58.031Z,95103.00
2023-04-04T09:42:58.042Z,95101.00
2023-04-04T09:43:58.041Z,95099.00
2023-04-04T09:44:58.053Z,95099.00
2023-04-04T09:45:58.152Z,95099.00
2023-04-04T09:46:58.024Z,95097.00
2023-04-04T09:47:58.072Z,95097.00
2023-04-04T09:48:58.004Z,95095.00
2023-04-04T09:49:58.040Z,95093.00
2023-04-04T09:50:57.977Z,95089.00
2023-04-04T09:51:57.950Z,95093.00
2023-04-04T09:52:58.002Z,95091.00
2023-04-04T09:53:58.011Z,95089.00
2023-04-04T09:54:57.958Z,95093.00
2023-04-04T09:55:57.966Z,95089.00
2023-04-04T09:56:57.971Z,95087.00
2023-04-04T09:57:57.935Z,95085.00
2023-04-04T09:59:04.030Z,95089.00
2023-04-04T09:59:59.011Z,95089.00
2023-04-04T10:00:57.954Z,95083.00
2023-04-04T10:01:57.930Z,95085.00
2023-04-04T10:02:57.942Z,95083.00
2023-04-04T10:03:57.946Z,95081.00
2023-04-04T10:05:05.768Z,95079.00
2023-04-04T10:05:58.866Z,95081.00
2023-04-04T10:06:57.889Z,95083.00
2023-04-04T10:07:57.859Z,95079.00
2023-04-04T10:08:57.873Z,95081.00
2023-04-04T10:09:57.849Z,95081.00
2023-04-04T10:11:09.629Z,95077.00
2023-04-04T10:11:58.847Z,95079.00
2023-04-04T10:12:57.854Z,95075.00
2023-04-04T10:13:57.838Z,95075.00
2023-04-04T10:14:57.837Z,95075.00
2023-04-04T10:15:57.867Z,95073.00
2023-04-04T10:16:57.857Z,95073.00
2023-04-04T10:17:57.950Z,95073.00
2023-04-04T10:18:57.823Z,95071.00
2023-04-04T10:19:57.820Z,95067.00
2023-04-04T10:21:11.994Z,95069.00
2023-04-04T10:21:58.777Z,95071.00
2023-04-04T10:22:57.795Z,95069.00
2023-04-04T10:23:57.807Z,95065.00
2023-04-04T10:24:57.804Z,95069.00
2023-04-04T10:25:57.820Z,95065.00
2023-04-04T10:26:57.863Z,95063.00
2023-04-04T10:27:57.775Z,95065.00
2023-04-04T10:28:57.727Z,95062.00
2023-04-04T10:29:57.765Z,95063.00
2023-04-04T10:31:05.870Z,95060.00
2023-04-04T10:31:59.539Z,95060.00
2023-04-04T10:32:57.787Z,95058.00
2023-04-04T10:33:57.742Z,95063.00
2023-04-04T10:34:57.718Z,95056.00
2023-04-04T10:35:57.758Z,95058.00
2023-04-04T10:36:57.720Z,95058.00
2023-04-04T10:37:57.683Z,95058.00
2023-04-04T10:38:57.694Z,95058.00
2023-04-04T10:39:57.672Z,95054.00
2023-04-04T10:40:57.709Z,95058.00
2023-04-04T10:41:57.731Z,95058.00
2023-04-04T10:42:57.658Z,95054.00
2023-04-04T10:43:57.684Z,95087.00
2023-04-04T10:45:01.591Z,95089.00
2023-04-04T10:45:58.638Z,95044.00
2023-04-04T10:46:57.696Z,95044.00
2023-04-04T10:47:57.734Z,95044.00
2023-04-04T10:48:57.662Z,95042.00
2023-04-04T10:49:57.614Z,95046.00
2023-04-04T10:50:57.687Z,95046.00
2023-04-04T10:51:57.751Z,95044.00
2023-04-04T10:52:57.601Z,95046.00
2023-04-04T10:53:57.645Z,95042.00
2023-04-04T10:54:57.613Z,95046.00
2023-04-04T10:55:57.575Z,95046.00
2023-04-04T10:56:57.615Z,95046.00
2023-04-04T10:57:57.637Z,95048.00
2023-04-04T10:58:58.223Z,95046.00
2023-04-04T10:59:57.758Z,95048.00
2023-04-04T11:00:57.867Z,95050.00
2023-04-04T11:01:57.822Z,95050.00
2023-04-04T11:02:57.933Z,95046.00
2023-04-04T11:03:58.002Z,95046.00
2023-04-04T11:04:57.948Z,95042.00
2023-04-04T11:05:58.029Z,95040.00
2023-04-04T11:06:58.104Z,95036.00
2023-04-04T11:08:07.685Z,95038.00
2023-04-04T11:08:59.291Z,95038.00
2023-04-04T11:09:58.134Z,95036.00
2023-04-04T11:10:58.127Z,95034.00
2023-04-04T11:11:58.089Z,95032.00
2023-04-04T11:13:11.396Z,95034.00
2023-04-04T11:13:59.073Z,95034.00
2023-04-04T11:14:58.118Z,95032.00
2023-04-04T11:15:58.112Z,95030.00
2023-04-04T11:16:58.148Z,95030.00
2023-04-04T11:17:58.106Z,95026.00
2023-04-04T11:18:58.078Z,95026.00
2023-04-04T11:19:58.011Z,95024.00
2023-04-04T11:20:58.014Z,95022.00
2023-04-04T11:21:58.034Z,95022.00
2023-04-04T11:22:58.063Z,95024.00
2023-04-04T11:23:58.086Z,95022.00
2023-04-04T11:24:58.116Z,95026.00
2023-04-04T11:25:58.175Z,95022.00
2023-04-04T11:26:58.231Z,95022.00
2023-04-04T11:27:58.407Z,95024.00
2023-04-04T11:28:58.354Z,95024.00
2023-04-04T11:29:58.415Z,95022.00
2023-04-04T11:30:58.460Z,95020.00
2023-04-04T11:31:58.577Z,95050.00
2023-04-04T11:33:07.337Z,95052.00
2023-04-04T11:33:59.548Z,95052.00
2023-04-04T11:34:58.552Z,95054.00
2023-04-04T11:35:58.589Z,95052.00
2023-04-04T11:36:58.566Z,95052.00
2023-04-04T11:37:58.514Z,95052.00
2023-04-04T11:38:58.484Z,95052.00
2023-04-04T11:39:58.483Z,95050.00
2023-04-04T11:40:58.497Z,95050.00
2023-04-04T11:41:58.547Z,95054.00
2023-04-04T11:42:58.578Z,95046.00
2023-04-04T11:43:58.655Z,95046.00
2023-04-04T11:44:58.653Z,95046.00
2023-04-04T11:45:58.748Z,95040.00